createdAt,value
2023-04-17T00:02:19.474Z,21.95
2023-04-17T00:07:22.895Z,22.30
2023-04-17T00:12:25.567Z,20.25
2023-04-17T00:17:28.213Z,20.03
2023-04-17T00:22:30.898Z,19.17
2023-04-17T00:27:33.615Z,23.92
2023-04-17T00:32:36.434Z,25.67
2023-04-17T00:37:39.140Z,26.02
2023-04-17T00:42:41.847Z,27.40
2023-04-17T00:47:44.632Z,27.90
2023-04-17T00:52:48.206Z,24.42
2023-04-17T00:57:51.221Z,24.40
2023-04-17T01:02:56.888Z,23.83
2023-04-17T01:07:59.953Z,20.23
2023-04-17T01:13:09.298Z,23.10
2023-04-17T01:18:14.304Z,23.95
2023-04-17T01:23:16.890Z,24.20
2023-04-17T01:28:19.801Z,30.98
2023-04-17T01:33:22.634Z,26.37
2023-04-17T01:38:25.283Z,27.40
2023-04-17T01:43:27.849Z,23.77
2023-04-17T01:48:30.400Z,26.67
2023-04-17T01:53:34.336Z,25.00
2023-04-17T01:58:37.385Z,19.30
2023-04-17T02:03:40.334Z,22.88
2023-04-17T02:08:43.057Z,22.88
2023-04-17T02:13:45.769Z,23.33
2023-04-17T02:18:49.665Z,29.30
2023-04-17T02:23:52.180Z,29.33
2023-04-17T02:28:55.010Z,28.35
2023-04-17T02:33:58.742Z,29.35
2023-04-17T02:39:02.479Z,24.47
2023-04-17T02:44:05.248Z,29.42
2023-04-17T02:49:08.443Z,30.07
2023-04-17T02:54:11.946Z,27.85
2023-04-17T02:59:14.766Z,29.83
2023-04-17T03:04:17.450Z,28.37
2023-04-17T03:09:22.580Z,30.60
2023-04-17T03:14:27.003Z,28.97
2023-04-17T03:19:29.579Z,29.67
2023-04-17T03:24:32.188Z,29.45
2023-04-17T03:29:36.421Z,29.87
2023-04-17T03:34:39.416Z,27.08
2023-04-17T03:39:42.156Z,25.43
2023-04-17T03:44:44.931Z,35.10
2023-04-17T03:49:48.039Z,29.50
2023-04-17T03:54:51.118Z,30.27
2023-04-17T03:59:54.456Z,29.90
2023-04-17T04:04:57.723Z,29.30
2023-04-17T04:10:00.409Z,30.77
2023-04-17T04:15:03.589Z,27.48
2023-04-17T04:20:09.435Z,26.60
2023-04-17T04:25:12.579Z,31.35
2023-04-17T04:30:36.142Z,26.37
2023-04-17T04:35:48.392Z,33.20
2023-04-17T04:40:52.748Z,32.78
2023-04-17T04:45:56.814Z,27.87
2023-04-17T04:51:03.180Z,28.13
2023-04-17T04:56:06.709Z,36.40
2023-04-17T05:01:11.110Z,32.50
2023-04-17T05:06:20.868Z,33.20
2023-04-17T05:11:28.630Z,38.73
2023-04-17T05:16:33.217Z,33.38
2023-04-17T05:21:36.517Z,34.17
2023-04-17T05:26:39.608Z,33.28
2023-04-17T05:31:43.555Z,31.55
2023-04-17T05:36:59.573Z,33.83
2023-04-17T05:42:02.628Z,36.13
2023-04-17T05:47:05.874Z,41.40
2023-04-17T05:52:08.952Z,43.30
2023-04-17T05:57:16.257Z,33.17
2023-04-17T06:02:19.182Z,39.47
2023-04-17T06:07:22.107Z,34.17
2023-04-17T06:12:25.855Z,40.17
2023-04-17T06:17:29.032Z,34.28
2023-04-17T06:22:33.272Z,36.22
2023-04-17T06:27:36.935Z,33.87
2023-04-17T06:32:44.064Z,31.10
2023-04-17T06:37:47.095Z,35.37
2023-04-17T06:42:49.983Z,30.73
2023-04-17T06:47:57.580Z,31.92
2023-04-17T06:53:00.779Z,29.67
2023-04-17T06:58:04.380Z,29.23
2023-04-17T07:03:08.202Z,34.77
2023-04-17T07:08:11.007Z,29.38
2023-04-17T07:13:13.743Z,27.08
2023-04-17T07:18:16.944Z,31.70
2023-04-17T07:23:19.824Z,33.33
2023-04-17T07:28:22.645Z,30.13
2023-04-17T07:33:25.652Z,27.88
2023-04-17T07:38:28.349Z,30.63
2023-04-17T07:43:31.050Z,34.40
2023-04-17T07:48:33.982Z,31.00
2023-04-17T07:53:37.632Z,27.40
2023-04-17T07:58:40.363Z,30.80
2023-04-17T08:03:45.232Z,28.95
2023-04-17T08:08:48.171Z,33.00
2023-04-17T08:13:50.965Z,34.80
2023-04-17T08:18:53.737Z,34.67
2023-04-17T08:23:56.514Z,30.95
2023-04-17T08:29:01.948Z,30.70
2023-04-17T08:34:13.582Z,34.20
2023-04-17T08:39:17.444Z,34.00
2023-04-17T08:44:24.160Z,34.70
2023-04-17T08:49:31.092Z,27.13
2023-04-17T08:54:35.486Z,27.27
2023-04-17T08:59:38.209Z,30.47
2023-04-17T09:04:42.992Z,31.52
2023-04-17T09:09:57.323Z,25.77
2023-04-17T09:14:59.997Z,29.05
2023-04-17T09:20:09.437Z,32.22
2023-04-17T09:25:20.274Z,29.17
2023-04-17T09:30:27.293Z,32.17
2023-04-17T09:35:30.370Z,31.67
2023-04-17T09:40:42.032Z,29.90
2023-04-17T09:45:46.045Z,34.30
2023-04-17T09:50:49.660Z,40.47
2023-04-17T09:55:53.618Z,34.30
2023-04-17T10:00:56.803Z,27.03
2023-04-17T10:06:01.224Z,35.42
2023-04-17T10:11:06.712Z,31.48
2023-04-17T10:16:09.665Z,29.97
2023-04-17T10:21:23.471Z,28.55
2023-04-17T10:26:26.469Z,31.60
2023-04-17T10:32:07.464Z,28.02
2023-04-17T10:37:15.655Z,27.92
2023-04-17T10:42:20.557Z,27.23
2023-04-17T10:47:30.273Z,23.83
2023-04-17T10:52:33.298Z,22.90
2023-04-17T10:57:55.282Z,21.77
2023-04-17T11:02:58.633Z,19.02
2023-04-17T11:08:01.621Z,19.00
2023-04-17T11:13:04.989Z,19.23
2023-04-17T11:18:09.123Z,16.43
2023-04-17T11:23:11.864Z,20.48
2023-04-17T11:28:14.685Z,18.27
2023-04-17T11:33:17.429Z,16.47
2023-04-17T11:38:22.359Z,16.95
2023-04-17T11:43:26.961Z,15.07
2023-04-17T11:48:32.636Z,13.65
2023-04-17T11:53:36.730Z,16.20
2023-04-17T11:58:53.929Z,16.13
2023-04-17T12:03:58.337Z,14.52
2023-04-17T12:09:01.341Z,11.90
2023-04-17T12:14:11.910Z,16.58
2023-04-17T12:19:16.973Z,13.93
2023-04-17T12:24:21.083Z,11.17
2023-04-17T12:29:36.104Z,13.60
2023-04-17T12:34:45.435Z,15.10
2023-04-17T12:39:48.463Z,15.23
2023-04-17T12:44:51.628Z,14.13
2023-04-17T12:49:54.385Z,13.37
2023-04-17T12:55:00.417Z,12.77
2023-04-17T13:00:06.313Z,15.43
2023-04-17T13:05:09.312Z,14.20
2023-04-17T13:10:12.152Z,16.38
2023-04-17T13:15:15.813Z,15.33
2023-04-17T13:20:18.598Z,9.13
2023-04-17T13:25:21.783Z,13.97
2023-04-17T13:30:26.554Z,12.90
2023-04-17T13:35:29.602Z,14.65
2023-04-17T13:40:32.391Z,12.70
2023-04-17T13:45:35.397Z,10.73
2023-04-17T13:50:38.387Z,12.47
2023-04-17T13:55:41.183Z,10.27
2023-04-17T14:00:44.012Z,15.32
2023-04-17T14:05:46.745Z,15.90
2023-04-17T14:10:49.412Z,11.88
2023-04-17T14:15:53.978Z,14.17
2023-04-17T14:20:57.049Z,9.43
2023-04-17T14:26:00.032Z,8.63
2023-04-17T14:31:02.785Z,8.43
2023-04-17T14:36:06.114Z,9.65
2023-04-17T14:41:09.079Z,9.23
2023-04-17T14:46:11.911Z,10.98
2023-04-17T14:51:15.413Z,8.63
2023-04-17T14:56:18.166Z,8.30
2023-04-17T15:01:20.945Z,9.50
2023-04-17T15:06:23.924Z,11.07
2023-04-17T15:11:27.181Z,9.75
2023-04-17T15:16:31.136Z,13.18
2023-04-17T15:21:34.603Z,12.70
2023-04-17T15:26:38.118Z,12.27
2023-04-17T15:31:41.357Z,11.70
2023-04-17T15:36:45.269Z,10.68
2023-04-17T15:41:49.043Z,7.28
2023-04-17T15:46:51.870Z,6.60
2023-04-17T15:51:54.731Z,7.25
2023-04-17T15:56:57.778Z,6.20
2023-04-17T16:02:00.980Z,6.72
2023-04-17T16:07:04.295Z,8.23
2023-04-17T16:12:10.078Z,7.20
2023-04-17T16:17:12.974Z,10.63
2023-04-17T16:22:15.875Z,8.93
2023-04-17T16:27:19.035Z,7.65
2023-04-17T16:32:24.811Z,7.95
2023-04-17T16:37:27.561Z,11.10
2023-04-17T16:42:30.423Z,13.45
2023-04-17T16:47:33.430Z,11.17
2023-04-17T16:52:36.240Z,9.25
2023-04-17T16:57:40.920Z,6.38
2023-04-17T17:02:44.124Z,7.90
2023-04-17T17:07:47.378Z,6.60
2023-04-17T17:12:50.155Z,6.87
2023-04-17T17:17:53.070Z,7.72
2023-04-17T17:22:56.034Z,6.82
2023-04-17T17:27:59.026Z,8.83
2023-04-17T17:33:02.036Z,5.95
2023-04-17T17:38:05.085Z,6.50
2023-04-17T17:43:08.205Z,6.35
2023-04-17T17:48:11.097Z,7.65
2023-04-17T17:53:14.417Z,6.90
2023-04-17T17:58:17.289Z,7.80
2023-04-17T18:03:21.374Z,9.33
2023-04-17T18:08:24.194Z,6.88
2023-04-17T18:13:27.096Z,7.38
2023-04-17T18:18:29.819Z,8.50
2023-04-17T18:23:32.616Z,7.07
2023-04-17T18:28:35.364Z,8.67
2023-04-17T18:33:38.122Z,7.75
2023-04-17T18:38:41.040Z,8.23
2023-04-17T18:43:43.777Z,10.23
2023-04-17T18:48:46.657Z,7.82
2023-04-17T18:53:50.532Z,8.00
2023-04-17T18:58:53.289Z,6.97
2023-04-17T19:03:56.101Z,6.90
2023-04-17T19:08:59.107Z,6.10
2023-04-17T19:14:02.144Z,8.02
2023-04-17T19:19:05.930Z,7.23
2023-04-17T19:24:08.900Z,7.63
2023-04-17T19:29:11.921Z,8.38
2023-04-17T19:34:14.974Z,6.90
2023-04-17T19:39:18.175Z,6.32
2023-04-17T19:44:21.095Z,7.47
2023-04-17T19:49:23.769Z,9.10
2023-04-17T19:54:27.631Z,8.30
2023-04-17T19:59:30.514Z,8.40
2023-04-17T20:04:33.450Z,9.68
2023-04-17T20:09:36.164Z,11.03
2023-04-17T20:14:39.005Z,10.93
2023-04-17T20:19:41.733Z,9.25
2023-04-17T20:24:44.528Z,9.77
2023-04-17T20:29:47.481Z,10.35
2023-04-17T20:34:50.334Z,9.77
2023-04-17T20:39:53.402Z,6.43
2023-04-17T20:44:56.361Z,11.45
2023-04-17T20:49:59.080Z,7.37
2023-04-17T20:55:02.021Z,12.13
2023-04-17T21:00:06.544Z,11.23
2023-04-17T21:05:09.970Z,12.48
2023-04-17T21:10:12.667Z,11.70
2023-04-17T21:15:15.592Z,10.80
2023-04-17T21:20:18.484Z,10.05
2023-04-17T21:25:21.829Z,12.60
2023-04-17T21:30:27.135Z,10.93
2023-04-17T21:35:29.973Z,12.48
2023-04-17T21:40:33.677Z,14.17
2023-04-17T21:45:36.507Z,13.45
2023-04-17T21:50:41.540Z,11.00
2023-04-17T21:55:44.304Z,12.95
2023-04-17T22:00:47.023Z,15.02
2023-04-17T22:05:51.018Z,9.63
2023-04-17T22:10:53.667Z,6.28
2023-04-17T22:15:58.491Z,11.87
2023-04-17T22:21:01.458Z,10.80
2023-04-17T22:26:04.501Z,9.80
2023-04-17T22:31:07.406Z,11.57
2023-04-17T22:36:10.344Z,11.15
2023-04-17T22:41:13.079Z,12.57
2023-04-17T22:46:16.614Z,11.60
2023-04-17T22:51:19.476Z,13.48
2023-04-17T22:56:22.257Z,10.13
2023-04-17T23:01:24.972Z,11.05
2023-04-17T23:06:28.346Z,12.07
2023-04-17T23:11:34.762Z,11.63
2023-04-17T23:16:37.532Z,12.73
2023-04-17T23:21:40.612Z,14.10
2023-04-17T23:26:43.334Z,12.75
2023-04-17T23:31:45.989Z,10.80
2023-04-17T23:36:48.783Z,15.00
2023-04-17T23:41:51.470Z,12.10
2023-04-17T23:46:54.142Z,11.20
2023-04-17T23:51:56.995Z,11.27
2023-04-17T23:56:59.663Z,13.60
